createdAt,value
2022-09-29T00:00:35.099Z,96578.00
2022-09-29T00:03:10.153Z,96585.00
2022-09-29T00:05:53.316Z,96586.00
2022-09-29T00:08:30.371Z,96586.00
2022-09-29T00:11:11.261Z,96585.00
2022-09-29T00:13:47.531Z,96584.00
2022-09-29T00:16:22.569Z,96592.00
2022-09-29T00:18:57.823Z,96578.00
2022-09-29T00:21:32.819Z,96572.00
2022-09-29T00:24:07.775Z,96577.00
2022-09-29T00:26:45.010Z,96569.00
2022-09-29T00:29:19.982Z,96570.00
2022-09-29T00:31:54.946Z,96573.00
2022-09-29T00:34:29.970Z,96568.00
2022-09-29T00:37:05.567Z,96565.00
2022-09-29T00:39:40.744Z,96571.00
2022-09-29T00:42:19.430Z,96565.00
2022-09-29T00:45:19.722Z,96566.00
2022-09-29T00:48:19.541Z,96568.00
2022-09-29T00:50:56.062Z,96563.00
2022-09-29T00:53:31.843Z,96557.00
2022-09-29T00:56:12.019Z,96553.00
2022-09-29T00:58:57.116Z,96558.00
2022-09-29T01:01:32.778Z,96554.00
2022-09-29T01:04:15.655Z,96558.00
2022-09-29T01:06:56.293Z,96554.00
2022-09-29T01:09:37.627Z,96553.00
2022-09-29T01:12:12.569Z,96555.00
2022-09-29T01:14:48.400Z,96554.00
2022-09-29T01:17:24.074Z,96548.00
2022-09-29T01:20:13.072Z,96553.00
2022-09-29T01:23:53.642Z,96550.00
2022-09-29T01:26:53.642Z,96553.00
2022-09-29T01:29:49.356Z,96554.00
2022-09-29T01:32:45.402Z,96549.00
2022-09-29T01:35:47.808Z,96549.00
2022-09-29T01:39:03.461Z,96551.00
2022-09-29T01:41:58.179Z,96550.00
2022-09-29T01:45:09.593Z,96554.00
2022-09-29T01:47:54.758Z,96557.00
2022-09-29T01:50:43.188Z,96558.00
2022-09-29T01:53:26.813Z,96554.00
2022-09-29T01:56:11.239Z,96558.00
2022-09-29T01:59:02.632Z,96557.00
2022-09-29T02:01:42.749Z,96558.00
2022-09-29T02:04:29.741Z,96568.00
2022-09-29T02:07:11.776Z,96562.00
2022-09-29T02:09:53.282Z,96565.00
2022-09-29T02:12:33.104Z,96558.00
2022-09-29T02:15:14.167Z,96558.00
2022-09-29T02:17:51.006Z,96560.00
2022-09-29T02:20:26.315Z,96560.00
2022-09-29T02:23:01.516Z,96565.00
2022-09-29T02:25:39.385Z,96566.00
2022-09-29T02:28:15.310Z,96577.00
2022-09-29T02:30:51.009Z,96568.00
2022-09-29T02:33:26.538Z,96571.00
2022-09-29T02:36:41.079Z,96574.00
2022-09-29T02:39:41.485Z,96567.00
2022-09-29T02:43:08.763Z,96574.00
2022-09-29T02:46:16.544Z,96576.00
2022-09-29T02:49:39.565Z,96577.00
2022-09-29T02:52:48.014Z,96568.00
2022-09-29T02:55:57.176Z,96566.00
2022-09-29T02:58:47.495Z,96557.00
2022-09-29T03:01:24.170Z,96553.00
2022-09-29T03:04:04.131Z,96558.00
2022-09-29T03:06:39.673Z,96551.00
2022-09-29T03:09:15.043Z,96550.00
2022-09-29T03:11:50.026Z,96550.00
2022-09-29T03:14:24.883Z,96543.00
2022-09-29T03:16:59.731Z,96537.00
2022-09-29T03:19:34.665Z,96536.00
2022-09-29T03:22:09.803Z,96537.00
2022-09-29T03:24:45.402Z,96539.00
2022-09-29T03:27:20.343Z,96541.00
2022-09-29T03:29:55.233Z,96549.00
2022-09-29T03:32:30.331Z,96538.00
2022-09-29T03:35:06.265Z,96533.00
2022-09-29T03:37:41.219Z,96538.00
2022-09-29T03:40:16.352Z,96533.00
2022-09-29T03:42:51.229Z,96537.00
2022-09-29T03:45:26.188Z,96528.00
2022-09-29T03:48:01.356Z,96526.00
2022-09-29T03:50:36.282Z,96527.00
2022-09-29T03:53:11.643Z,96529.00
2022-09-29T03:55:48.937Z,96523.00
2022-09-29T03:58:23.924Z,96523.00
2022-09-29T04:00:59.642Z,96523.00
2022-09-29T04:03:34.629Z,96534.00
2022-09-29T04:06:09.529Z,96534.00
2022-09-29T04:08:44.531Z,96529.00
2022-09-29T04:11:19.437Z,96530.00
2022-09-29T04:13:54.821Z,96530.00
2022-09-29T04:16:29.800Z,96522.00
2022-09-29T04:19:04.855Z,96525.00
2022-09-29T04:21:39.794Z,96521.00
2022-09-29T04:24:14.821Z,96524.00
2022-09-29T04:26:49.824Z,96522.00
2022-09-29T04:29:24.900Z,96531.00
2022-09-29T04:32:00.030Z,96529.00
2022-09-29T04:34:35.317Z,96539.00
2022-09-29T04:37:13.525Z,96530.00
2022-09-29T04:39:48.476Z,96528.00
2022-09-29T04:42:23.851Z,96533.00
2022-09-29T04:44:58.744Z,96530.00
2022-09-29T04:47:33.676Z,96531.00
2022-09-29T04:50:09.669Z,96538.00
2022-09-29T04:52:45.497Z,96532.00
2022-09-29T04:55:21.520Z,96535.00
2022-09-29T04:57:56.522Z,96548.00
2022-09-29T05:00:32.741Z,96550.00
2022-09-29T05:03:07.811Z,96546.00
2022-09-29T05:05:42.722Z,96559.00
2022-09-29T05:08:17.701Z,96560.00
2022-09-29T05:10:52.702Z,96566.00
2022-09-29T05:13:27.570Z,96559.00
2022-09-29T05:16:03.876Z,96570.00
2022-09-29T05:18:38.953Z,96564.00
2022-09-29T05:21:27.519Z,96573.00
2022-09-29T05:24:03.822Z,96574.00
2022-09-29T05:26:39.225Z,96576.00
2022-09-29T05:29:14.263Z,96563.00
2022-09-29T05:31:50.139Z,96574.00
2022-09-29T05:34:25.266Z,96571.00
2022-09-29T05:37:00.234Z,96574.00
2022-09-29T05:39:37.150Z,96567.00
2022-09-29T05:42:12.294Z,96576.00
2022-09-29T05:44:47.321Z,96575.00
2022-09-29T05:47:23.682Z,96565.00
2022-09-29T05:49:58.810Z,96575.00
2022-09-29T05:52:33.726Z,96575.00
2022-09-29T05:55:09.816Z,96576.00
2022-09-29T05:57:49.380Z,96575.00
2022-09-29T06:00:24.355Z,96591.00
2022-09-29T06:03:00.246Z,96587.00
2022-09-29T06:05:39.586Z,96578.00
2022-09-29T06:08:14.558Z,96574.00
2022-09-29T06:10:49.477Z,96571.00
2022-09-29T06:13:24.392Z,96568.00
2022-09-29T06:16:00.656Z,96566.00
2022-09-29T06:18:36.262Z,96559.00
2022-09-29T06:21:15.243Z,96580.00
2022-09-29T06:23:51.767Z,96582.00
2022-09-29T06:26:27.707Z,96584.00
2022-09-29T06:29:03.474Z,96588.00
2022-09-29T06:31:39.225Z,96588.00
2022-09-29T06:34:14.235Z,96592.00
2022-09-29T06:37:07.805Z,96595.00
2022-09-29T06:39:43.597Z,96599.00
2022-09-29T06:42:18.469Z,96603.00
2022-09-29T06:44:55.014Z,96606.00
2022-09-29T06:47:30.076Z,96610.00
2022-09-29T06:50:14.225Z,96612.00
2022-09-29T06:53:03.355Z,96608.00
2022-09-29T06:55:39.117Z,96608.00
2022-09-29T06:58:14.177Z,96608.00
2022-09-29T07:00:50.768Z,96610.00
2022-09-29T07:03:26.160Z,96608.00
2022-09-29T07:06:25.447Z,96605.00
2022-09-29T07:09:01.304Z,96603.00
2022-09-29T07:11:36.207Z,96609.00
2022-09-29T07:14:11.453Z,96608.00
2022-09-29T07:16:49.260Z,96623.00
2022-09-29T07:19:24.767Z,96605.00
2022-09-29T07:21:59.861Z,96609.00
2022-09-29T07:24:34.889Z,96607.00
2022-09-29T07:27:09.764Z,96614.00
2022-09-29T07:29:51.762Z,96618.00
2022-09-29T07:32:32.677Z,96623.00
2022-09-29T07:35:08.292Z,96625.00
2022-09-29T07:37:51.600Z,96624.00
2022-09-29T07:40:28.159Z,96623.00
2022-09-29T07:43:03.710Z,96630.00
2022-09-29T07:45:38.828Z,96621.00
2022-09-29T07:48:13.782Z,96619.00
2022-09-29T07:50:48.868Z,96621.00
2022-09-29T07:53:23.755Z,96626.00
2022-09-29T07:56:06.165Z,96631.00
2022-09-29T07:58:42.256Z,96623.00
2022-09-29T08:01:19.911Z,96619.00
2022-09-29T08:03:56.557Z,96632.00
2022-09-29T08:06:32.536Z,96633.00
2022-09-29T08:09:07.657Z,96625.00
2022-09-29T08:11:43.759Z,96630.00
2022-09-29T08:14:18.879Z,96626.00
2022-09-29T08:16:54.031Z,96626.00
2022-09-29T08:19:29.098Z,96631.00
2022-09-29T08:22:04.066Z,96628.00
2022-09-29T08:24:40.472Z,96631.00
2022-09-29T08:27:19.077Z,96639.00
2022-09-29T08:29:54.433Z,96641.00
2022-09-29T08:32:29.405Z,96634.00
2022-09-29T08:35:05.211Z,96642.00
2022-09-29T08:37:40.169Z,96647.00
2022-09-29T08:40:16.013Z,96641.00
2022-09-29T08:43:06.958Z,96650.00
2022-09-29T08:46:01.325Z,96656.00
2022-09-29T08:48:53.688Z,96649.00
2022-09-29T08:51:54.279Z,96653.00
2022-09-29T08:54:39.447Z,96657.00
2022-09-29T08:57:18.877Z,96660.00
2022-09-29T08:59:59.378Z,96660.00
2022-09-29T09:02:53.071Z,96668.00
2022-09-29T09:05:52.407Z,96665.00
2022-09-29T09:08:39.124Z,96655.00
2022-09-29T09:11:48.014Z,96662.00
2022-09-29T09:14:48.473Z,96658.00
2022-09-29T09:17:49.681Z,96671.00
2022-09-29T09:20:55.941Z,96663.00
2022-09-29T09:23:59.805Z,96668.00
2022-09-29T09:26:42.704Z,96669.00
2022-09-29T09:29:37.612Z,96676.00
2022-09-29T09:32:22.038Z,96680.00
2022-09-29T09:35:58.795Z,96680.00
2022-09-29T09:38:56.918Z,96689.00
2022-09-29T09:41:36.449Z,96687.00
2022-09-29T09:44:18.765Z,96687.00
2022-09-29T09:46:58.341Z,96687.00
2022-09-29T09:49:41.151Z,96686.00
2022-09-29T09:52:41.129Z,96684.00
2022-09-29T09:55:22.357Z,96683.00
2022-09-29T09:58:07.668Z,96680.00
2022-09-29T10:00:48.256Z,96682.00
2022-09-29T10:03:23.608Z,96683.00
2022-09-29T10:05:58.972Z,96683.00
2022-09-29T10:08:39.445Z,96687.00
2022-09-29T10:11:25.846Z,96684.00
2022-09-29T10:14:27.023Z,96681.00
2022-09-29T10:17:12.765Z,96687.00
2022-09-29T10:19:57.151Z,96690.00
2022-09-29T10:22:32.994Z,96692.00
2022-09-29T10:25:19.350Z,96686.00
2022-09-29T10:27:57.633Z,96686.00
2022-09-29T10:30:35.425Z,96689.00
2022-09-29T10:33:19.228Z,96688.00
2022-09-29T10:36:08.881Z,96690.00
2022-09-29T10:38:47.621Z,96691.00
2022-09-29T10:41:22.631Z,96687.00
2022-09-29T10:44:21.057Z,96682.00
2022-09-29T10:46:57.268Z,96686.00
2022-09-29T10:49:32.298Z,96686.00
2022-09-29T10:52:28.009Z,96684.00
2022-09-29T10:55:04.265Z,96682.00
2022-09-29T10:57:40.002Z,96686.00
2022-09-29T11:00:35.639Z,96684.00
2022-09-29T11:03:24.675Z,96684.00
2022-09-29T11:06:05.479Z,96685.00
2022-09-29T11:09:18.423Z,96687.00
2022-09-29T11:12:01.436Z,96676.00
2022-09-29T11:14:38.036Z,96680.00
2022-09-29T11:17:37.318Z,96680.00
2022-09-29T11:20:14.998Z,96675.00
2022-09-29T11:23:14.834Z,96684.00
2022-09-29T11:26:20.894Z,96680.00
2022-09-29T11:29:45.342Z,96682.00
2022-09-29T11:33:07.673Z,96686.00
2022-09-29T11:36:11.867Z,96691.00
2022-09-29T11:39:54.855Z,96691.00
2022-09-29T11:43:01.618Z,96689.00
2022-09-29T11:46:37.535Z,96697.00
2022-09-29T11:50:07.822Z,96700.00
2022-09-29T11:53:04.248Z,96691.00
2022-09-29T11:55:51.053Z,96696.00
2022-09-29T11:58:47.038Z,96692.00
2022-09-29T12:01:46.559Z,96688.00
2022-09-29T12:05:05.344Z,96697.00
2022-09-29T12:07:46.144Z,96697.00
2022-09-29T12:10:37.362Z,96689.00
2022-09-29T12:13:45.773Z,96689.00
2022-09-29T12:16:27.789Z,96695.00
2022-09-29T12:19:12.172Z,96688.00
2022-09-29T12:21:51.372Z,96691.00
2022-09-29T12:24:46.599Z,96688.00
2022-09-29T12:27:33.639Z,96679.00
2022-09-29T12:30:26.074Z,96682.00
2022-09-29T12:33:22.071Z,96682.00
2022-09-29T12:36:46.236Z,96677.00
2022-09-29T12:40:00.922Z,96677.00
2022-09-29T12:43:03.530Z,96674.00
2022-09-29T12:45:56.947Z,96675.00
2022-09-29T12:49:06.495Z,96677.00
2022-09-29T12:51:52.435Z,96686.00
2022-09-29T12:54:41.444Z,96680.00
2022-09-29T12:57:21.152Z,96680.00
2022-09-29T13:00:05.388Z,96688.00
2022-09-29T13:03:06.413Z,96688.00
2022-09-29T13:06:24.337Z,96693.00
2022-09-29T13:09:36.262Z,96685.00
2022-09-29T13:12:55.905Z,96682.00
2022-09-29T13:16:14.795Z,96697.00
2022-09-29T13:19:22.904Z,96695.00
2022-09-29T13:23:22.595Z,96696.00
2022-09-29T13:26:10.023Z,96693.00
2022-09-29T13:28:59.981Z,96701.00
2022-09-29T13:31:39.086Z,96702.00
2022-09-29T13:34:45.541Z,96697.00
2022-09-29T13:37:24.427Z,96706.00
2022-09-29T13:40:10.611Z,96705.00
2022-09-29T13:42:48.933Z,96700.00
2022-09-29T13:45:27.888Z,96698.00
2022-09-29T13:48:17.484Z,96708.00
2022-09-29T13:50:59.572Z,96699.00
2022-09-29T13:53:37.555Z,96714.00
2022-09-29T13:56:20.620Z,96710.00
2022-09-29T13:59:02.555Z,96707.00
2022-09-29T14:01:38.649Z,96711.00
2022-09-29T14:04:45.416Z,96712.00
2022-09-29T14:07:35.508Z,96713.00
2022-09-29T14:10:39.302Z,96715.00
2022-09-29T14:13:35.362Z,96715.00
2022-09-29T14:16:38.032Z,96722.00
2022-09-29T14:19:50.554Z,96730.00
2022-09-29T14:22:31.717Z,96730.00
2022-09-29T14:25:12.482Z,96731.00
2022-09-29T14:28:08.460Z,96732.00
2022-09-29T14:30:51.018Z,96736.00
2022-09-29T14:33:30.722Z,96740.00
2022-09-29T14:36:16.329Z,96736.00
2022-09-29T14:39:21.703Z,96744.00
2022-09-29T14:41:51.435Z,96745.00
2022-09-29T14:44:50.919Z,96743.00
2022-09-29T14:48:09.033Z,96751.00
2022-09-29T14:51:10.435Z,96754.00
2022-09-29T14:53:48.020Z,96752.00
2022-09-29T14:56:44.166Z,96762.00
2022-09-29T14:59:48.907Z,96764.00
2022-09-29T15:02:34.210Z,96762.00
2022-09-29T15:05:31.443Z,96758.00
2022-09-29T15:08:31.606Z,96758.00
2022-09-29T15:11:27.712Z,96758.00
2022-09-29T15:14:17.918Z,96753.00
2022-09-29T15:17:01.634Z,96751.00
2022-09-29T15:20:00.785Z,96757.00
2022-09-29T15:22:38.539Z,96759.00
2022-09-29T15:25:45.950Z,96762.00
2022-09-29T15:28:29.419Z,96766.00
2022-09-29T15:31:10.838Z,96761.00
2022-09-29T15:33:47.755Z,96776.00
2022-09-29T15:36:31.480Z,96768.00
2022-09-29T15:39:36.829Z,96766.00
2022-09-29T15:42:22.075Z,96771.00
2022-09-29T15:45:05.740Z,96774.00
2022-09-29T15:47:41.455Z,96778.00
2022-09-29T15:50:26.096Z,96777.00
2022-09-29T15:53:02.609Z,96781.00
2022-09-29T15:55:37.935Z,96784.00
2022-09-29T15:58:37.155Z,96793.00
2022-09-29T16:01:15.142Z,96786.00
2022-09-29T16:03:57.554Z,96782.00
2022-09-29T16:06:39.668Z,96796.00
2022-09-29T16:09:20.500Z,96797.00
2022-09-29T16:11:55.568Z,96793.00
2022-09-29T16:14:31.047Z,96797.00
2022-09-29T16:17:08.944Z,96802.00
2022-09-29T16:19:48.380Z,96796.00
2022-09-29T16:22:27.224Z,96794.00
2022-09-29T16:25:23.108Z,96804.00
2022-09-29T16:28:04.797Z,96798.00
2022-09-29T16:30:39.789Z,96808.00
2022-09-29T16:33:22.854Z,96814.00
2022-09-29T16:36:12.229Z,96812.00
2022-09-29T16:38:51.466Z,96818.00
2022-09-29T16:41:38.103Z,96820.00
2022-09-29T16:44:43.643Z,96824.00
2022-09-29T16:47:27.186Z,96836.00
2022-09-29T16:50:12.467Z,96830.00
2022-09-29T16:52:50.974Z,96837.00
2022-09-29T16:55:28.448Z,96836.00
2022-09-29T16:58:11.628Z,96828.00
2022-09-29T17:00:47.600Z,96842.00
2022-09-29T17:03:22.600Z,96842.00
2022-09-29T17:05:57.749Z,96848.00
2022-09-29T17:08:34.767Z,96846.00
2022-09-29T17:11:09.770Z,96847.00
2022-09-29T17:13:44.865Z,96849.00
2022-09-29T17:16:21.350Z,96859.00
2022-09-29T17:18:57.427Z,96860.00
2022-09-29T17:21:34.473Z,96862.00
2022-09-29T17:24:11.472Z,96864.00
2022-09-29T17:27:05.379Z,96873.00
2022-09-29T17:29:41.219Z,96873.00
2022-09-29T17:32:17.159Z,96881.00
2022-09-29T17:34:52.065Z,96882.00
2022-09-29T17:37:27.019Z,96889.00
2022-09-29T17:40:03.662Z,96887.00
2022-09-29T17:42:39.274Z,96888.00
2022-09-29T17:45:20.297Z,96896.00
2022-09-29T17:47:55.280Z,96900.00
2022-09-29T17:50:38.037Z,96907.00
2022-09-29T17:53:17.697Z,96908.00
2022-09-29T17:55:55.846Z,96910.00
2022-09-29T17:58:30.995Z,96913.00
2022-09-29T18:01:06.537Z,96908.00
2022-09-29T18:03:42.223Z,96911.00
2022-09-29T18:06:21.697Z,96914.00
2022-09-29T18:08:57.548Z,96922.00
2022-09-29T18:11:32.489Z,96924.00
2022-09-29T18:14:07.446Z,96923.00
2022-09-29T18:16:42.401Z,96930.00
2022-09-29T18:19:17.815Z,96941.00
2022-09-29T18:21:52.786Z,96934.00
2022-09-29T18:24:27.683Z,96934.00
2022-09-29T18:27:02.654Z,96934.00
2022-09-29T18:29:37.854Z,96939.00
2022-09-29T18:32:18.913Z,96938.00
2022-09-29T18:34:54.170Z,96933.00
2022-09-29T18:37:29.161Z,96942.00
2022-09-29T18:40:04.416Z,96945.00
2022-09-29T18:42:44.649Z,96937.00
2022-09-29T18:45:25.270Z,96948.00
2022-09-29T18:48:03.811Z,96947.00
2022-09-29T18:50:44.422Z,96957.00
2022-09-29T18:53:21.418Z,96953.00
2022-09-29T18:56:03.020Z,96951.00
2022-09-29T18:58:38.123Z,96961.00
2022-09-29T19:01:28.360Z,96962.00
2022-09-29T19:04:04.857Z,96955.00
2022-09-29T19:06:39.762Z,96961.00
2022-09-29T19:09:14.747Z,96955.00
2022-09-29T19:11:53.199Z,96969.00
2022-09-29T19:14:29.917Z,96968.00
2022-09-29T19:17:05.468Z,96964.00
2022-09-29T19:19:40.332Z,96974.00
2022-09-29T19:22:15.718Z,96974.00
2022-09-29T19:24:50.788Z,96977.00
2022-09-29T19:27:25.724Z,96981.00
2022-09-29T19:30:03.468Z,96980.00
2022-09-29T19:32:38.893Z,96979.00
2022-09-29T19:35:19.344Z,96984.00
2022-09-29T19:37:55.799Z,96984.00
2022-09-29T19:40:34.582Z,96992.00
2022-09-29T19:43:09.848Z,96988.00
2022-09-29T19:45:44.796Z,97006.00
2022-09-29T19:48:22.554Z,97000.00
2022-09-29T19:51:17.125Z,97000.00
2022-09-29T19:54:10.416Z,97005.00
2022-09-29T19:56:55.550Z,97002.00
2022-09-29T19:59:34.298Z,97009.00
2022-09-29T20:02:13.734Z,97014.00
2022-09-29T20:04:48.688Z,97021.00
2022-09-29T20:07:24.294Z,97017.00
2022-09-29T20:09:59.215Z,97019.00
2022-09-29T20:12:35.114Z,97019.00
2022-09-29T20:15:11.845Z,97017.00
2022-09-29T20:17:46.786Z,97025.00
2022-09-29T20:20:23.754Z,97026.00
2022-09-29T20:23:00.721Z,97031.00
2022-09-29T20:25:35.612Z,97027.00
2022-09-29T20:28:14.487Z,97023.00
2022-09-29T20:30:59.641Z,97033.00
2022-09-29T20:33:36.425Z,97034.00
2022-09-29T20:36:11.413Z,97035.00
2022-09-29T20:38:50.815Z,97032.00
2022-09-29T20:41:26.357Z,97038.00
2022-09-29T20:44:01.478Z,97029.00
2022-09-29T20:46:36.712Z,97042.00
2022-09-29T20:49:11.779Z,97042.00
2022-09-29T20:51:46.863Z,97046.00
2022-09-29T20:54:22.334Z,97052.00
2022-09-29T20:56:57.638Z,97051.00
2022-09-29T20:59:32.577Z,97059.00
2022-09-29T21:02:10.867Z,97053.00
2022-09-29T21:04:45.875Z,97059.00
2022-09-29T21:07:35.719Z,97063.00
2022-09-29T21:10:11.418Z,97070.00
2022-09-29T21:12:46.514Z,97071.00
2022-09-29T21:15:21.418Z,97074.00
2022-09-29T21:17:56.463Z,97078.00
2022-09-29T21:20:32.376Z,97083.00
2022-09-29T21:23:07.325Z,97083.00
2022-09-29T21:25:42.263Z,97086.00
2022-09-29T21:28:17.599Z,97083.00
2022-09-29T21:31:17.520Z,97096.00
2022-09-29T21:34:02.132Z,97097.00
2022-09-29T21:36:38.000Z,97102.00
2022-09-29T21:39:14.458Z,97102.00
2022-09-29T21:41:49.504Z,97106.00
2022-09-29T21:44:24.776Z,97106.00
2022-09-29T21:47:00.849Z,97105.00
2022-09-29T21:49:35.764Z,97109.00
2022-09-29T21:52:10.732Z,97111.00
2022-09-29T21:54:45.645Z,97108.00
2022-09-29T21:57:20.547Z,97117.00
2022-09-29T21:59:55.402Z,97116.00
2022-09-29T22:02:30.418Z,97125.00
2022-09-29T22:05:05.356Z,97120.00
2022-09-29T22:07:40.322Z,97115.00
2022-09-29T22:10:15.363Z,97115.00
2022-09-29T22:12:50.233Z,97117.00
2022-09-29T22:15:25.259Z,97121.00
2022-09-29T22:18:00.117Z,97121.00
2022-09-29T22:20:39.595Z,97126.00
2022-09-29T22:23:14.498Z,97122.00
2022-09-29T22:25:49.502Z,97129.00
2022-09-29T22:28:25.565Z,97135.00
2022-09-29T22:31:09.890Z,97131.00
2022-09-29T22:33:45.378Z,97136.00
2022-09-29T22:36:20.219Z,97132.00
2022-09-29T22:38:55.784Z,97141.00
2022-09-29T22:41:31.328Z,97134.00
2022-09-29T22:44:06.511Z,97135.00
2022-09-29T22:46:41.510Z,97142.00
2022-09-29T22:49:16.387Z,97139.00
2022-09-29T22:51:51.248Z,97149.00
2022-09-29T22:54:26.267Z,97143.00
2022-09-29T22:57:01.162Z,97139.00
2022-09-29T22:59:36.038Z,97142.00
2022-09-29T23:02:11.004Z,97145.00
2022-09-29T23:04:46.004Z,97149.00
2022-09-29T23:07:20.916Z,97137.00
2022-09-29T23:09:55.855Z,97140.00
2022-09-29T23:12:30.973Z,97142.00
2022-09-29T23:15:07.070Z,97143.00
2022-09-29T23:17:42.143Z,97151.00
2022-09-29T23:20:17.104Z,97150.00
2022-09-29T23:22:51.999Z,97154.00
2022-09-29T23:25:26.929Z,97158.00
2022-09-29T23:28:02.045Z,97169.00
2022-09-29T23:30:37.181Z,97168.00
2022-09-29T23:33:12.135Z,97158.00
2022-09-29T23:35:47.457Z,97164.00
2022-09-29T23:38:40.819Z,97162.00
2022-09-29T23:41:16.461Z,97160.00
2022-09-29T23:43:51.330Z,97159.00
2022-09-29T23:46:31.453Z,97157.00
2022-09-29T23:49:10.875Z,97159.00
2022-09-29T23:51:51.983Z,97161.00
2022-09-29T23:54:29.513Z,97158.00
2022-09-29T23:57:04.560Z,97159.00
2022-09-29T23:59:39.456Z,97161.00
